Dwale, Kentucky
Current Conditions -  °F | °C
As of 6:55 PM on Monday 22 Dec 2014 (Local Time) from KPBX Reporting Station
Overcast Overcast  
Wind Chill: 54°   Ceiling: 9000
Heat Index: 54°   Visibility: 10mi
Dew Point: 41°   Wind: 9mph
Humidity: 61%   Direction: 140°SE
Pressure: 29.84"   Gusts: NA
Location:  37.62°N, 82.72°W
Report Text: KPBX 222355Z AUTO 14008KT 10SM OVC090 12/05 A2984 RMK AO2 T01220049 10123 20106
Loading
Personal Weather Stations






























Interactive Weather Map New forecast layout! Learn more

10-Day Weather Forecast

Advertisements
Track Severe Weather on mobile